sensor_id;sensor_type;location;lat;lon;timestamp;P1;durP1;ratioP1;P2;durP2;ratioP2
6053;SDS011;3055;50.886;14.814;2022-12-07T00:01:47;6.63;;;1.57;;
6053;SDS011;3055;50.886;14.814;2022-12-07T00:04:15;1.80;;;1.70;;
6053;SDS011;3055;50.886;14.814;2022-12-07T00:06:46;1.80;;;1.70;;
6053;SDS011;3055;50.886;14.814;2022-12-07T00:09:17;1.60;;;1.50;;
6053;SDS011;3055;50.886;14.814;2022-12-07T00:11:44;2.67;;;1.80;;
6053;SDS011;3055;50.886;14.814;2022-12-07T00:14:15;1.60;;;1.50;;
6053;SDS011;3055;50.886;14.814;2022-12-07T00:16:43;1.83;;;1.73;;
6053;SDS011;3055;50.886;14.814;2022-12-07T00:19:11;1.83;;;1.73;;
6053;SDS011;3055;50.886;14.814;2022-12-07T00:21:39;1.90;;;1.77;;
6053;SDS011;3055;50.886;14.814;2022-12-07T00:24:07;1.73;;;1.63;;
6053;SDS011;3055;50.886;14.814;2022-12-07T00:26:37;2.03;;;1.83;;
6053;SDS011;3055;50.886;14.814;2022-12-07T00:29:06;2.20;;;1.70;;
6053;SDS011;3055;50.886;14.814;2022-12-07T00:31:36;2.00;;;1.90;;
6053;SDS011;3055;50.886;14.814;2022-12-07T00:34:04;1.80;;;1.70;;
6053;SDS011;3055;50.886;14.814;2022-12-07T00:36:32;1.70;;;1.60;;
6053;SDS011;3055;50.886;14.814;2022-12-07T00:38:59;1.70;;;1.60;;
6053;SDS011;3055;50.886;14.814;2022-12-07T00:41:28;1.80;;;1.70;;
6053;SDS011;3055;50.886;14.814;2022-12-07T00:43:56;1.57;;;1.47;;
6053;SDS011;3055;50.886;14.814;2022-12-07T00:46:24;1.80;;;1.70;;
6053;SDS011;3055;50.886;14.814;2022-12-07T00:48:51;1.77;;;1.67;;
6053;SDS011;3055;50.886;14.814;2022-12-07T00:51:20;2.13;;;1.90;;
6053;SDS011;3055;50.886;14.814;2022-12-07T00:53:48;3.00;;;2.50;;
6053;SDS011;3055;50.886;14.814;2022-12-07T00:56:16;3.40;;;3.00;;
6053;SDS011;3055;50.886;14.814;2022-12-07T00:58:50;3.97;;;3.20;;
6053;SDS011;3055;50.886;14.814;2022-12-07T01:01:19;3.93;;;3.53;;
6053;SDS011;3055;50.886;14.814;2022-12-07T01:03:46;4.73;;;3.77;;
6053;SDS011;3055;50.886;14.814;2022-12-07T01:06:13;6.53;;;4.10;;
6053;SDS011;3055;50.886;14.814;2022-12-07T01:08:42;4.27;;;3.87;;
6053;SDS011;3055;50.886;14.814;2022-12-07T01:11:09;5.30;;;4.00;;
6053;SDS011;3055;50.886;14.814;2022-12-07T01:13:39;4.87;;;4.20;;
6053;SDS011;3055;50.886;14.814;2022-12-07T01:16:10;5.77;;;4.03;;
6053;SDS011;3055;50.886;14.814;2022-12-07T01:18:38;5.30;;;4.80;;
6053;SDS011;3055;50.886;14.814;2022-12-07T01:21:06;6.53;;;4.03;;
6053;SDS011;3055;50.886;14.814;2022-12-07T01:23:36;5.83;;;4.53;;
6053;SDS011;3055;50.886;14.814;2022-12-07T01:26:05;5.80;;;4.50;;
6053;SDS011;3055;50.886;14.814;2022-12-07T01:28:33;6.80;;;5.23;;
6053;SDS011;3055;50.886;14.814;2022-12-07T01:31:02;5.83;;;3.67;;
6053;SDS011;3055;50.886;14.814;2022-12-07T01:33:33;5.27;;;3.97;;
6053;SDS011;3055;50.886;14.814;2022-12-07T01:36:02;3.67;;;3.37;;
6053;SDS011;3055;50.886;14.814;2022-12-07T01:38:29;3.93;;;3.43;;
6053;SDS011;3055;50.886;14.814;2022-12-07T01:40:56;3.60;;;3.23;;
6053;SDS011;3055;50.886;14.814;2022-12-07T01:43:24;4.50;;;3.33;;
6053;SDS011;3055;50.886;14.814;2022-12-07T01:45:53;3.00;;;2.63;;
6053;SDS011;3055;50.886;14.814;2022-12-07T01:48:22;3.93;;;3.57;;
6053;SDS011;3055;50.886;14.814;2022-12-07T01:50:53;5.27;;;4.50;;
6053;SDS011;3055;50.886;14.814;2022-12-07T01:53:26;5.43;;;4.43;;
6053;SDS011;3055;50.886;14.814;2022-12-07T01:55:55;6.00;;;5.40;;
6053;SDS011;3055;50.886;14.814;2022-12-07T01:58:24;8.53;;;5.63;;
6053;SDS011;3055;50.886;14.814;2022-12-07T02:00:52;6.03;;;5.40;;
6053;SDS011;3055;50.886;14.814;2022-12-07T02:03:20;9.80;;;7.30;;
6053;SDS011;3055;50.886;14.814;2022-12-07T02:05:51;8.90;;;7.10;;
6053;SDS011;3055;50.886;14.814;2022-12-07T02:08:21;10.07;;;7.80;;
6053;SDS011;3055;50.886;14.814;2022-12-07T02:10:49;9.03;;;8.07;;
6053;SDS011;3055;50.886;14.814;2022-12-07T02:13:16;11.70;;;8.53;;
6053;SDS011;3055;50.886;14.814;2022-12-07T02:18:38;9.97;;;8.80;;
6053;SDS011;3055;50.886;14.814;2022-12-07T02:21:20;12.40;;;9.07;;
6053;SDS011;3055;50.886;14.814;2022-12-07T02:29:44;11.27;;;9.00;;
6053;SDS011;3055;50.886;14.814;2022-12-07T02:32:16;11.97;;;8.97;;
6053;SDS011;3055;50.886;14.814;2022-12-07T02:34:49;13.63;;;9.07;;
6053;SDS011;3055;50.886;14.814;2022-12-07T02:37:25;11.57;;;8.80;;
6053;SDS011;3055;50.886;14.814;2022-12-07T02:39:59;9.73;;;8.23;;
6053;SDS011;3055;50.886;14.814;2022-12-07T02:42:30;12.97;;;9.53;;
6053;SDS011;3055;50.886;14.814;2022-12-07T02:45:04;12.23;;;9.40;;
6053;SDS011;3055;50.886;14.814;2022-12-07T02:47:33;13.60;;;10.07;;
6053;SDS011;3055;50.886;14.814;2022-12-07T02:50:02;12.73;;;10.03;;
6053;SDS011;3055;50.886;14.814;2022-12-07T02:52:30;12.70;;;9.73;;
6053;SDS011;3055;50.886;14.814;2022-12-07T02:54:57;14.40;;;9.70;;
6053;SDS011;3055;50.886;14.814;2022-12-07T02:57:32;12.90;;;9.97;;
6053;SDS011;3055;50.886;14.814;2022-12-07T03:00:10;10.60;;;9.20;;
6053;SDS011;3055;50.886;14.814;2022-12-07T03:02:43;11.87;;;9.67;;
6053;SDS011;3055;50.886;14.814;2022-12-07T03:05:30;11.13;;;8.90;;
6053;SDS011;3055;50.886;14.814;2022-12-07T03:08:19;11.23;;;9.50;;
6053;SDS011;3055;50.886;14.814;2022-12-07T03:10:54;11.20;;;8.53;;
6053;SDS011;3055;50.886;14.814;2022-12-07T03:13:25;12.20;;;10.07;;
6053;SDS011;3055;50.886;14.814;2022-12-07T03:16:02;11.40;;;8.43;;
6053;SDS011;3055;50.886;14.814;2022-12-07T03:18:36;12.33;;;9.20;;
6053;SDS011;3055;50.886;14.814;2022-12-07T03:21:06;11.73;;;8.80;;
6053;SDS011;3055;50.886;14.814;2022-12-07T03:23:38;13.40;;;9.27;;
6053;SDS011;3055;50.886;14.814;2022-12-07T03:26:06;11.23;;;9.07;;
6053;SDS011;3055;50.886;14.814;2022-12-07T03:28:39;14.00;;;9.57;;
6053;SDS011;3055;50.886;14.814;2022-12-07T03:31:10;11.77;;;9.27;;
6053;SDS011;3055;50.886;14.814;2022-12-07T03:33:42;12.17;;;9.83;;
6053;SDS011;3055;50.886;14.814;2022-12-07T03:36:15;11.87;;;9.40;;
6053;SDS011;3055;50.886;14.814;2022-12-07T03:38:48;12.67;;;9.73;;
6053;SDS011;3055;50.886;14.814;2022-12-07T03:41:21;13.43;;;10.07;;
6053;SDS011;3055;50.886;14.814;2022-12-07T03:43:50;13.47;;;9.97;;
6053;SDS011;3055;50.886;14.814;2022-12-07T03:46:22;14.63;;;9.70;;
6053;SDS011;3055;50.886;14.814;2022-12-07T03:48:56;13.13;;;10.37;;
6053;SDS011;3055;50.886;14.814;2022-12-07T03:51:32;11.67;;;9.50;;
6053;SDS011;3055;50.886;14.814;2022-12-07T03:54:07;13.17;;;10.33;;
6053;SDS011;3055;50.886;14.814;2022-12-07T03:56:37;12.57;;;10.20;;
6053;SDS011;3055;50.886;14.814;2022-12-07T03:59:05;12.77;;;11.03;;
6053;SDS011;3055;50.886;14.814;2022-12-07T04:01:34;13.50;;;10.80;;
6053;SDS011;3055;50.886;14.814;2022-12-07T04:04:01;15.57;;;10.97;;
6053;SDS011;3055;50.886;14.814;2022-12-07T04:06:28;13.33;;;11.00;;
6053;SDS011;3055;50.886;14.814;2022-12-07T04:08:55;14.17;;;10.87;;
6053;SDS011;3055;50.886;14.814;2022-12-07T04:11:22;13.60;;;10.83;;
6053;SDS011;3055;50.886;14.814;2022-12-07T04:13:49;15.40;;;11.33;;
6053;SDS011;3055;50.886;14.814;2022-12-07T04:16:47;16.90;;;10.73;;
6053;SDS011;3055;50.886;14.814;2022-12-07T04:19:15;12.57;;;10.40;;
6053;SDS011;3055;50.886;14.814;2022-12-07T04:21:42;12.17;;;10.00;;
6053;SDS011;3055;50.886;14.814;2022-12-07T04:24:11;16.27;;;10.57;;
6053;SDS011;3055;50.886;14.814;2022-12-07T04:26:39;13.30;;;9.60;;
6053;SDS011;3055;50.886;14.814;2022-12-07T04:29:06;12.17;;;9.50;;
6053;SDS011;3055;50.886;14.814;2022-12-07T04:31:33;9.93;;;8.87;;
6053;SDS011;3055;50.886;14.814;2022-12-07T04:34:02;10.23;;;7.60;;
6053;SDS011;3055;50.886;14.814;2022-12-07T04:36:30;9.73;;;7.27;;
6053;SDS011;3055;50.886;14.814;2022-12-07T04:38:57;9.07;;;7.10;;
6053;SDS011;3055;50.886;14.814;2022-12-07T04:41:24;8.20;;;7.23;;
6053;SDS011;3055;50.886;14.814;2022-12-07T04:43:56;7.50;;;6.67;;
6053;SDS011;3055;50.886;14.814;2022-12-07T04:46:24;6.73;;;6.13;;
6053;SDS011;3055;50.886;14.814;2022-12-07T04:48:52;8.10;;;6.70;;
6053;SDS011;3055;50.886;14.814;2022-12-07T04:51:22;7.63;;;6.77;;
6053;SDS011;3055;50.886;14.814;2022-12-07T04:53:51;11.67;;;6.90;;
6053;SDS011;3055;50.886;14.814;2022-12-07T04:56:18;8.30;;;7.03;;
6053;SDS011;3055;50.886;14.814;2022-12-07T04:58:46;8.00;;;7.20;;
6053;SDS011;3055;50.886;14.814;2022-12-07T05:01:14;9.60;;;7.53;;
6053;SDS011;3055;50.886;14.814;2022-12-07T05:03:42;9.17;;;7.77;;
6053;SDS011;3055;50.886;14.814;2022-12-07T05:06:10;9.10;;;8.17;;
6053;SDS011;3055;50.886;14.814;2022-12-07T05:08:39;10.00;;;7.53;;
6053;SDS011;3055;50.886;14.814;2022-12-07T05:11:07;10.77;;;9.37;;
6053;SDS011;3055;50.886;14.814;2022-12-07T05:13:55;8.63;;;7.23;;
6053;SDS011;3055;50.886;14.814;2022-12-07T05:16:22;11.90;;;8.03;;
6053;SDS011;3055;50.886;14.814;2022-12-07T05:18:49;9.63;;;8.30;;
6053;SDS011;3055;50.886;14.814;2022-12-07T05:21:16;14.90;;;9.10;;
6053;SDS011;3055;50.886;14.814;2022-12-07T05:23:45;12.17;;;9.43;;
6053;SDS011;3055;50.886;14.814;2022-12-07T05:26:12;12.50;;;9.20;;
6053;SDS011;3055;50.886;14.814;2022-12-07T05:28:40;13.33;;;9.83;;
6053;SDS011;3055;50.886;14.814;2022-12-07T05:31:07;15.07;;;10.67;;
6053;SDS011;3055;50.886;14.814;2022-12-07T05:33:34;13.73;;;9.70;;
6053;SDS011;3055;50.886;14.814;2022-12-07T05:36:01;14.20;;;9.70;;
6053;SDS011;3055;50.886;14.814;2022-12-07T05:38:30;10.93;;;8.80;;
6053;SDS011;3055;50.886;14.814;2022-12-07T05:41:01;15.30;;;8.93;;
6053;SDS011;3055;50.886;14.814;2022-12-07T05:43:28;15.20;;;9.47;;
6053;SDS011;3055;50.886;14.814;2022-12-07T05:45:56;10.77;;;8.43;;
6053;SDS011;3055;50.886;14.814;2022-12-07T05:48:23;10.30;;;8.47;;
6053;SDS011;3055;50.886;14.814;2022-12-07T05:50:50;11.00;;;8.00;;
6053;SDS011;3055;50.886;14.814;2022-12-07T05:53:18;20.87;;;9.63;;
6053;SDS011;3055;50.886;14.814;2022-12-07T05:55:45;12.47;;;8.33;;
6053;SDS011;3055;50.886;14.814;2022-12-07T05:58:13;10.87;;;8.63;;
6053;SDS011;3055;50.886;14.814;2022-12-07T06:00:58;11.50;;;8.63;;
6053;SDS011;3055;50.886;14.814;2022-12-07T06:03:25;15.20;;;10.37;;
6053;SDS011;3055;50.886;14.814;2022-12-07T06:05:52;13.80;;;9.40;;
6053;SDS011;3055;50.886;14.814;2022-12-07T06:08:19;12.70;;;9.33;;
6053;SDS011;3055;50.886;14.814;2022-12-07T06:10:46;11.73;;;9.37;;
6053;SDS011;3055;50.886;14.814;2022-12-07T06:13:37;13.33;;;9.97;;
6053;SDS011;3055;50.886;14.814;2022-12-07T06:16:03;10.60;;;8.77;;
6053;SDS011;3055;50.886;14.814;2022-12-07T06:18:30;13.30;;;8.53;;
6053;SDS011;3055;50.886;14.814;2022-12-07T06:20:57;12.17;;;9.37;;
6053;SDS011;3055;50.886;14.814;2022-12-07T06:23:24;13.10;;;8.70;;
6053;SDS011;3055;50.886;14.814;2022-12-07T06:25:51;11.37;;;8.80;;
6053;SDS011;3055;50.886;14.814;2022-12-07T06:28:18;10.93;;;8.80;;
6053;SDS011;3055;50.886;14.814;2022-12-07T06:30:47;12.33;;;8.80;;
6053;SDS011;3055;50.886;14.814;2022-12-07T06:33:22;10.93;;;8.00;;
6053;SDS011;3055;50.886;14.814;2022-12-07T06:35:49;9.40;;;8.33;;
6053;SDS011;3055;50.886;14.814;2022-12-07T06:38:16;9.87;;;8.10;;
6053;SDS011;3055;50.886;14.814;2022-12-07T06:40:43;9.47;;;8.27;;
6053;SDS011;3055;50.886;14.814;2022-12-07T06:43:10;10.77;;;8.07;;
6053;SDS011;3055;50.886;14.814;2022-12-07T06:45:37;10.07;;;8.40;;
6053;SDS011;3055;50.886;14.814;2022-12-07T06:48:06;12.87;;;8.93;;
6053;SDS011;3055;50.886;14.814;2022-12-07T06:50:33;11.93;;;8.93;;
6053;SDS011;3055;50.886;14.814;2022-12-07T06:53:01;12.03;;;9.10;;
6053;SDS011;3055;50.886;14.814;2022-12-07T06:55:28;9.17;;;7.33;;
6053;SDS011;3055;50.886;14.814;2022-12-07T06:57:55;8.23;;;7.30;;
6053;SDS011;3055;50.886;14.814;2022-12-07T07:00:23;9.20;;;7.30;;
6053;SDS011;3055;50.886;14.814;2022-12-07T07:02:50;8.17;;;7.00;;
6053;SDS011;3055;50.886;14.814;2022-12-07T07:05:18;10.67;;;6.80;;
6053;SDS011;3055;50.886;14.814;2022-12-07T07:07:46;7.47;;;6.40;;
6053;SDS011;3055;50.886;14.814;2022-12-07T07:10:14;8.87;;;6.63;;
6053;SDS011;3055;50.886;14.814;2022-12-07T07:12:41;7.80;;;6.60;;
6053;SDS011;3055;50.886;14.814;2022-12-07T07:15:09;8.67;;;7.07;;
6053;SDS011;3055;50.886;14.814;2022-12-07T07:17:37;10.90;;;7.37;;
6053;SDS011;3055;50.886;14.814;2022-12-07T07:20:04;11.93;;;8.17;;
6053;SDS011;3055;50.886;14.814;2022-12-07T07:22:33;11.40;;;8.90;;
6053;SDS011;3055;50.886;14.814;2022-12-07T07:25:00;12.90;;;8.80;;
6053;SDS011;3055;50.886;14.814;2022-12-07T07:27:27;12.13;;;8.93;;
6053;SDS011;3055;50.886;14.814;2022-12-07T07:29:55;10.50;;;8.03;;
6053;SDS011;3055;50.886;14.814;2022-12-07T07:32:22;9.90;;;7.37;;
6053;SDS011;3055;50.886;14.814;2022-12-07T07:34:49;8.50;;;7.03;;
6053;SDS011;3055;50.886;14.814;2022-12-07T07:37:16;8.33;;;7.13;;
6053;SDS011;3055;50.886;14.814;2022-12-07T07:39:44;9.80;;;7.77;;
6053;SDS011;3055;50.886;14.814;2022-12-07T07:42:11;8.73;;;6.43;;
6053;SDS011;3055;50.886;14.814;2022-12-07T07:44:38;7.70;;;6.67;;
6053;SDS011;3055;50.886;14.814;2022-12-07T07:47:05;9.40;;;7.43;;
6053;SDS011;3055;50.886;14.814;2022-12-07T07:49:32;8.60;;;7.13;;
6053;SDS011;3055;50.886;14.814;2022-12-07T07:51:59;11.07;;;7.97;;
6053;SDS011;3055;50.886;14.814;2022-12-07T07:54:26;9.87;;;8.27;;
6053;SDS011;3055;50.886;14.814;2022-12-07T07:56:55;11.67;;;7.80;;
6053;SDS011;3055;50.886;14.814;2022-12-07T07:59:22;8.10;;;6.43;;
6053;SDS011;3055;50.886;14.814;2022-12-07T08:01:49;8.97;;;7.07;;
6053;SDS011;3055;50.886;14.814;2022-12-07T08:04:16;8.17;;;6.50;;
6053;SDS011;3055;50.886;14.814;2022-12-07T08:06:44;7.87;;;7.07;;
6053;SDS011;3055;50.886;14.814;2022-12-07T08:09:11;7.80;;;6.70;;
6053;SDS011;3055;50.886;14.814;2022-12-07T08:11:38;8.13;;;6.93;;
6053;SDS011;3055;50.886;14.814;2022-12-07T08:14:07;8.97;;;7.17;;
6053;SDS011;3055;50.886;14.814;2022-12-07T08:16:34;8.93;;;7.40;;
6053;SDS011;3055;50.886;14.814;2022-12-07T08:19:01;8.37;;;7.20;;
6053;SDS011;3055;50.886;14.814;2022-12-07T08:21:30;9.47;;;7.43;;
6053;SDS011;3055;50.886;14.814;2022-12-07T08:23:57;10.30;;;7.30;;
6053;SDS011;3055;50.886;14.814;2022-12-07T08:26:25;6.47;;;5.77;;
6053;SDS011;3055;50.886;14.814;2022-12-07T08:28:52;8.80;;;6.53;;
6053;SDS011;3055;50.886;14.814;2022-12-07T08:31:21;6.33;;;5.13;;
6053;SDS011;3055;50.886;14.814;2022-12-07T08:33:48;5.80;;;5.17;;
6053;SDS011;3055;50.886;14.814;2022-12-07T08:36:15;6.13;;;5.50;;
6053;SDS011;3055;50.886;14.814;2022-12-07T08:38:43;8.00;;;5.33;;
6053;SDS011;3055;50.886;14.814;2022-12-07T08:41:10;6.10;;;4.87;;
6053;SDS011;3055;50.886;14.814;2022-12-07T08:43:37;6.17;;;5.13;;
6053;SDS011;3055;50.886;14.814;2022-12-07T08:46:06;6.23;;;4.93;;
6053;SDS011;3055;50.886;14.814;2022-12-07T08:48:37;5.70;;;5.03;;
6053;SDS011;3055;50.886;14.814;2022-12-07T08:51:06;5.73;;;4.80;;
6053;SDS011;3055;50.886;14.814;2022-12-07T08:53:34;5.50;;;4.70;;
6053;SDS011;3055;50.886;14.814;2022-12-07T08:56:03;6.50;;;5.50;;
6053;SDS011;3055;50.886;14.814;2022-12-07T08:58:32;6.40;;;5.23;;
6053;SDS011;3055;50.886;14.814;2022-12-07T09:00:59;8.03;;;5.50;;
6053;SDS011;3055;50.886;14.814;2022-12-07T09:03:26;7.90;;;4.83;;
6053;SDS011;3055;50.886;14.814;2022-12-07T09:05:55;5.87;;;4.93;;
6053;SDS011;3055;50.886;14.814;2022-12-07T09:08:22;5.63;;;5.07;;
6053;SDS011;3055;50.886;14.814;2022-12-07T09:10:53;5.77;;;5.17;;
6053;SDS011;3055;50.886;14.814;2022-12-07T09:13:20;6.10;;;5.60;;
6053;SDS011;3055;50.886;14.814;2022-12-07T09:15:47;15.20;;;11.00;;
6053;SDS011;3055;50.886;14.814;2022-12-07T09:18:14;12.90;;;9.03;;
6053;SDS011;3055;50.886;14.814;2022-12-07T09:20:41;9.60;;;7.47;;
6053;SDS011;3055;50.886;14.814;2022-12-07T09:23:09;7.13;;;5.87;;
6053;SDS011;3055;50.886;14.814;2022-12-07T09:25:36;6.73;;;6.03;;
6053;SDS011;3055;50.886;14.814;2022-12-07T09:28:03;8.37;;;7.13;;
6053;SDS011;3055;50.886;14.814;2022-12-07T09:30:30;6.83;;;6.10;;
6053;SDS011;3055;50.886;14.814;2022-12-07T09:32:57;7.87;;;5.90;;
6053;SDS011;3055;50.886;14.814;2022-12-07T09:35:24;5.33;;;4.80;;
6053;SDS011;3055;50.886;14.814;2022-12-07T09:37:51;4.50;;;4.10;;
6053;SDS011;3055;50.886;14.814;2022-12-07T09:40:20;4.83;;;4.40;;
6053;SDS011;3055;50.886;14.814;2022-12-07T09:42:49;4.50;;;4.10;;
6053;SDS011;3055;50.886;14.814;2022-12-07T09:45:19;4.93;;;4.50;;
6053;SDS011;3055;50.886;14.814;2022-12-07T09:47:49;4.77;;;4.37;;
6053;SDS011;3055;50.886;14.814;2022-12-07T09:50:17;5.17;;;4.67;;
6053;SDS011;3055;50.886;14.814;2022-12-07T09:52:47;5.87;;;5.23;;
6053;SDS011;3055;50.886;14.814;2022-12-07T09:55:16;5.00;;;4.60;;
6053;SDS011;3055;50.886;14.814;2022-12-07T09:57:50;5.73;;;5.13;;
6053;SDS011;3055;50.886;14.814;2022-12-07T10:00:19;4.90;;;4.43;;
6053;SDS011;3055;50.886;14.814;2022-12-07T10:02:47;5.20;;;4.70;;
6053;SDS011;3055;50.886;14.814;2022-12-07T10:05:20;6.33;;;4.37;;
6053;SDS011;3055;50.886;14.814;2022-12-07T10:07:50;8.00;;;4.83;;
6053;SDS011;3055;50.886;14.814;2022-12-07T10:10:19;4.70;;;4.30;;
6053;SDS011;3055;50.886;14.814;2022-12-07T10:12:53;4.97;;;4.20;;
6053;SDS011;3055;50.886;14.814;2022-12-07T10:15:22;8.33;;;4.90;;
6053;SDS011;3055;50.886;14.814;2022-12-07T10:17:51;5.97;;;4.30;;
6053;SDS011;3055;50.886;14.814;2022-12-07T10:20:20;4.87;;;4.10;;
6053;SDS011;3055;50.886;14.814;2022-12-07T10:22:57;5.73;;;4.70;;
6053;SDS011;3055;50.886;14.814;2022-12-07T10:25:28;4.87;;;4.47;;
6053;SDS011;3055;50.886;14.814;2022-12-07T10:27:58;3.77;;;3.47;;
6053;SDS011;3055;50.886;14.814;2022-12-07T10:30:27;4.57;;;4.17;;
6053;SDS011;3055;50.886;14.814;2022-12-07T10:32:55;6.47;;;4.27;;
6053;SDS011;3055;50.886;14.814;2022-12-07T10:35:24;5.13;;;4.00;;
6053;SDS011;3055;50.886;14.814;2022-12-07T10:37:53;4.83;;;4.30;;
6053;SDS011;3055;50.886;14.814;2022-12-07T10:40:24;4.13;;;3.80;;
6053;SDS011;3055;50.886;14.814;2022-12-07T10:43:05;4.50;;;4.10;;
6053;SDS011;3055;50.886;14.814;2022-12-07T10:45:45;4.93;;;4.30;;
6053;SDS011;3055;50.886;14.814;2022-12-07T10:48:33;4.97;;;4.03;;
6053;SDS011;3055;50.886;14.814;2022-12-07T10:51:08;5.30;;;4.00;;
6053;SDS011;3055;50.886;14.814;2022-12-07T10:53:45;7.50;;;4.53;;
6053;SDS011;3055;50.886;14.814;2022-12-07T10:56:21;4.47;;;3.97;;
6053;SDS011;3055;50.886;14.814;2022-12-07T10:59:01;4.30;;;3.90;;
6053;SDS011;3055;50.886;14.814;2022-12-07T11:01:43;5.87;;;3.63;;
6053;SDS011;3055;50.886;14.814;2022-12-07T11:04:21;5.07;;;3.80;;
6053;SDS011;3055;50.886;14.814;2022-12-07T11:06:58;4.93;;;4.30;;
6053;SDS011;3055;50.886;14.814;2022-12-07T11:09:42;6.17;;;4.10;;
6053;SDS011;3055;50.886;14.814;2022-12-07T11:12:27;5.57;;;3.87;;
6053;SDS011;3055;50.886;14.814;2022-12-07T11:15:08;4.80;;;3.60;;
6053;SDS011;3055;50.886;14.814;2022-12-07T11:17:45;4.97;;;4.03;;
6053;SDS011;3055;50.886;14.814;2022-12-07T11:20:29;4.83;;;3.50;;
6053;SDS011;3055;50.886;14.814;2022-12-07T11:23:09;5.97;;;4.30;;
6053;SDS011;3055;50.886;14.814;2022-12-07T11:25:44;7.37;;;4.00;;
6053;SDS011;3055;50.886;14.814;2022-12-07T11:28:22;5.47;;;4.10;;
6053;SDS011;3055;50.886;14.814;2022-12-07T11:31:03;8.87;;;3.63;;
6053;SDS011;3055;50.886;14.814;2022-12-07T11:33:37;3.87;;;3.43;;
6053;SDS011;3055;50.886;14.814;2022-12-07T11:36:12;6.23;;;3.50;;
6053;SDS011;3055;50.886;14.814;2022-12-07T11:38:57;5.10;;;3.80;;
6053;SDS011;3055;50.886;14.814;2022-12-07T11:41:27;4.63;;;3.43;;
6053;SDS011;3055;50.886;14.814;2022-12-07T11:43:58;4.90;;;3.23;;
6053;SDS011;3055;50.886;14.814;2022-12-07T11:46:36;7.27;;;4.57;;
6053;SDS011;3055;50.886;14.814;2022-12-07T11:49:14;4.77;;;3.77;;
6053;SDS011;3055;50.886;14.814;2022-12-07T11:51:49;4.00;;;3.60;;
6053;SDS011;3055;50.886;14.814;2022-12-07T11:54:20;6.70;;;3.53;;
6053;SDS011;3055;50.886;14.814;2022-12-07T11:56:51;3.43;;;3.13;;
6053;SDS011;3055;50.886;14.814;2022-12-07T11:59:23;4.57;;;3.70;;
6053;SDS011;3055;50.886;14.814;2022-12-07T12:01:58;4.77;;;4.00;;
6053;SDS011;3055;50.886;14.814;2022-12-07T12:04:39;4.83;;;2.93;;
6053;SDS011;3055;50.886;14.814;2022-12-07T12:07:17;3.97;;;3.47;;
6053;SDS011;3055;50.886;14.814;2022-12-07T12:09:48;5.57;;;3.93;;
6053;SDS011;3055;50.886;14.814;2022-12-07T12:12:32;5.87;;;3.77;;
6053;SDS011;3055;50.886;14.814;2022-12-07T12:15:18;2.90;;;2.63;;
6053;SDS011;3055;50.886;14.814;2022-12-07T12:17:58;4.80;;;3.67;;
6053;SDS011;3055;50.886;14.814;2022-12-07T12:20:45;4.33;;;3.00;;
6053;SDS011;3055;50.886;14.814;2022-12-07T12:23:16;3.97;;;3.30;;
6053;SDS011;3055;50.886;14.814;2022-12-07T12:25:46;6.63;;;3.60;;
6053;SDS011;3055;50.886;14.814;2022-12-07T12:28:22;6.47;;;3.50;;
6053;SDS011;3055;50.886;14.814;2022-12-07T12:31:12;9.47;;;6.17;;
6053;SDS011;3055;50.886;14.814;2022-12-07T12:33:43;7.27;;;4.60;;
6053;SDS011;3055;50.886;14.814;2022-12-07T12:36:20;12.10;;;8.97;;
6053;SDS011;3055;50.886;14.814;2022-12-07T12:38:51;6.23;;;5.23;;
6053;SDS011;3055;50.886;14.814;2022-12-07T12:41:51;4.33;;;3.53;;
6053;SDS011;3055;50.886;14.814;2022-12-07T12:47:43;4.47;;;3.30;;
6053;SDS011;3055;50.886;14.814;2022-12-07T12:50:25;7.00;;;3.77;;
6053;SDS011;3055;50.886;14.814;2022-12-07T12:52:58;3.63;;;3.27;;
6053;SDS011;3055;50.886;14.814;2022-12-07T12:58:50;4.63;;;2.93;;
6053;SDS011;3055;50.886;14.814;2022-12-07T13:01:51;6.20;;;3.17;;
6053;SDS011;3055;50.886;14.814;2022-12-07T13:04:23;3.93;;;3.30;;
6053;SDS011;3055;50.886;14.814;2022-12-07T13:06:58;3.70;;;3.30;;
6053;SDS011;3055;50.886;14.814;2022-12-07T13:09:26;3.63;;;2.67;;
6053;SDS011;3055;50.886;14.814;2022-12-07T13:11:58;6.90;;;3.33;;
6053;SDS011;3055;50.886;14.814;2022-12-07T13:14:37;3.20;;;2.60;;
6053;SDS011;3055;50.886;14.814;2022-12-07T13:17:08;3.30;;;3.10;;
6053;SDS011;3055;50.886;14.814;2022-12-07T13:22:38;2.80;;;2.50;;
6053;SDS011;3055;50.886;14.814;2022-12-07T13:25:28;6.47;;;3.00;;
6053;SDS011;3055;50.886;14.814;2022-12-07T13:28:09;3.57;;;3.13;;
6053;SDS011;3055;50.886;14.814;2022-12-07T13:30:43;4.30;;;2.87;;
6053;SDS011;3055;50.886;14.814;2022-12-07T13:33:13;4.30;;;3.10;;
6053;SDS011;3055;50.886;14.814;2022-12-07T13:35:43;6.27;;;4.53;;
6053;SDS011;3055;50.886;14.814;2022-12-07T13:38:21;7.73;;;5.40;;
6053;SDS011;3055;50.886;14.814;2022-12-07T13:43:44;5.77;;;5.07;;
6053;SDS011;3055;50.886;14.814;2022-12-07T13:46:14;3.90;;;3.60;;
6053;SDS011;3055;50.886;14.814;2022-12-07T13:48:44;4.17;;;3.50;;
6053;SDS011;3055;50.886;14.814;2022-12-07T13:51:20;4.07;;;3.10;;
6053;SDS011;3055;50.886;14.814;2022-12-07T13:53:51;4.17;;;3.63;;
6053;SDS011;3055;50.886;14.814;2022-12-07T13:56:21;4.13;;;3.70;;
6053;SDS011;3055;50.886;14.814;2022-12-07T13:58:52;4.07;;;3.63;;
6053;SDS011;3055;50.886;14.814;2022-12-07T14:01:19;3.53;;;3.23;;
6053;SDS011;3055;50.886;14.814;2022-12-07T14:03:46;6.40;;;3.97;;
6053;SDS011;3055;50.886;14.814;2022-12-07T14:06:22;4.23;;;3.40;;
6053;SDS011;3055;50.886;14.814;2022-12-07T14:11:42;4.57;;;4.00;;
6053;SDS011;3055;50.886;14.814;2022-12-07T14:14:10;6.03;;;4.07;;
6053;SDS011;3055;50.886;14.814;2022-12-07T14:16:43;4.93;;;4.53;;
6053;SDS011;3055;50.886;14.814;2022-12-07T14:22:18;7.47;;;6.30;;
6053;SDS011;3055;50.886;14.814;2022-12-07T14:24:50;9.77;;;7.53;;
6053;SDS011;3055;50.886;14.814;2022-12-07T14:27:24;6.90;;;6.20;;
6053;SDS011;3055;50.886;14.814;2022-12-07T14:29:55;5.80;;;5.20;;
6053;SDS011;3055;50.886;14.814;2022-12-07T14:32:23;6.57;;;5.77;;
6053;SDS011;3055;50.886;14.814;2022-12-07T14:34:54;7.00;;;4.60;;
6053;SDS011;3055;50.886;14.814;2022-12-07T14:37:29;5.70;;;4.73;;
6053;SDS011;3055;50.886;14.814;2022-12-07T14:39:58;7.00;;;3.77;;
6053;SDS011;3055;50.886;14.814;2022-12-07T14:42:27;4.33;;;3.93;;
6053;SDS011;3055;50.886;14.814;2022-12-07T14:44:56;6.40;;;3.90;;
6053;SDS011;3055;50.886;14.814;2022-12-07T14:47:23;4.70;;;3.77;;
6053;SDS011;3055;50.886;14.814;2022-12-07T14:49:52;5.17;;;3.80;;
6053;SDS011;3055;50.886;14.814;2022-12-07T14:52:19;2.77;;;2.57;;
6053;SDS011;3055;50.886;14.814;2022-12-07T14:54:49;2.97;;;2.60;;
6053;SDS011;3055;50.886;14.814;2022-12-07T14:57:17;2.50;;;2.30;;
6053;SDS011;3055;50.886;14.814;2022-12-07T14:59:44;2.23;;;2.03;;
6053;SDS011;3055;50.886;14.814;2022-12-07T15:02:12;1.90;;;1.80;;
6053;SDS011;3055;50.886;14.814;2022-12-07T15:04:40;2.20;;;2.00;;
6053;SDS011;3055;50.886;14.814;2022-12-07T15:07:10;2.20;;;2.10;;
6053;SDS011;3055;50.886;14.814;2022-12-07T15:09:41;2.63;;;2.40;;
6053;SDS011;3055;50.886;14.814;2022-12-07T15:12:08;2.30;;;2.10;;
6053;SDS011;3055;50.886;14.814;2022-12-07T15:14:36;2.57;;;2.37;;
6053;SDS011;3055;50.886;14.814;2022-12-07T15:17:03;5.23;;;4.73;;
6053;SDS011;3055;50.886;14.814;2022-12-07T15:19:31;3.77;;;3.37;;
6053;SDS011;3055;50.886;14.814;2022-12-07T15:21:58;3.03;;;2.83;;
6053;SDS011;3055;50.886;14.814;2022-12-07T15:24:26;2.93;;;2.73;;
6053;SDS011;3055;50.886;14.814;2022-12-07T15:26:53;4.13;;;3.50;;
6053;SDS011;3055;50.886;14.814;2022-12-07T15:29:20;13.20;;;8.77;;
6053;SDS011;3055;50.886;14.814;2022-12-07T15:31:49;4.10;;;3.70;;
6053;SDS011;3055;50.886;14.814;2022-12-07T15:34:16;6.70;;;6.10;;
6053;SDS011;3055;50.886;14.814;2022-12-07T15:36:43;3.77;;;2.63;;
6053;SDS011;3055;50.886;14.814;2022-12-07T15:39:10;2.93;;;2.73;;
6053;SDS011;3055;50.886;14.814;2022-12-07T15:41:38;3.90;;;3.60;;
6053;SDS011;3055;50.886;14.814;2022-12-07T15:44:05;4.77;;;4.27;;
6053;SDS011;3055;50.886;14.814;2022-12-07T15:46:51;3.83;;;3.53;;